Time;durP1;ratioP1;P1;durP2;ratioP2;P2;SDS_P1;SDS_P2;PMS_P1;PMS_P2;Temp;Humidity;BMP_temperature;BMP_pressure;BME280_temperature;BME280_humidity;BME280_pressure;Samples;Min_cycle;Max_cycle;Signal;HPM_P1;HPM_P2
2023/01/10 00:01:21;;;;;;;17.85;2.35;;;3.00;99.90;;;;;;5046903;28;20053;-53
2023/01/10 00:03:46;;;;;;;16.63;2.22;;;3.00;99.90;;;;;;5047129;28;20041;-53
2023/01/10 00:06:12;;;;;;;14.35;2.28;;;3.00;99.90;;;;;;5047009;28;20529;-52
2023/01/10 00:08:38;;;;;;;12.60;2.38;;;3.00;99.90;;;;;;5047064;28;20049;-52
2023/01/10 00:13:22;;;;;;;21.30;2.75;;;4.10;99.90;;;;;;5046838;28;20167;-51
2023/01/10 00:13:55;;;;;;;17.52;2.40;;;3.00;99.90;;;;;;5046935;28;20467;-53
2023/01/10 00:16:22;;;;;;;21.93;3.57;;;3.00;99.90;;;;;;5046634;28;20053;-53
2023/01/10 00:18:48;;;;;;;20.88;2.95;;;3.00;99.90;;;;;;5046880;28;20307;-51
2023/01/10 00:21:13;;;;;;;17.05;3.60;;;5.60;99.90;;;;;;5028915;28;20103;-51
2023/01/10 00:23:40;;;;;;;24.30;4.32;;;2.90;99.90;;;;;;5046413;28;20114;-53
2023/01/10 00:26:05;;;;;;;26.38;3.47;;;3.00;99.90;;;;;;5047174;28;20051;-52
2023/01/10 00:28:34;;;;;;;22.98;3.38;;;3.00;99.90;;;;;;5047083;28;20037;-53
2023/01/10 00:31:05;;;;;;;21.00;3.00;;;3.00;99.90;;;;;;5046971;28;20084;-52
2023/01/10 00:33:35;;;;;;;19.30;3.15;;;3.10;99.90;;;;;;5028782;28;20384;-53
2023/01/10 00:36:02;;;;;;;17.20;3.13;;;3.10;99.90;;;;;;5011813;28;20052;-53
2023/01/10 00:38:29;;;;;;;20.85;3.33;;;3.10;99.90;;;;;;5046537;28;20467;-53
2023/01/10 00:40:55;;;;;;;23.10;3.35;;;3.20;99.90;;;;;;5046333;28;20037;-53
2023/01/10 00:46:06;;;;;;;18.15;2.58;;;3.30;99.90;;;;;;5046447;28;20048;-53
2023/01/10 00:48:31;;;;;;;24.73;4.28;;;3.30;99.90;;;;;;5046669;28;20126;-54
2023/01/10 00:50:57;;;;;;;16.48;3.63;;;3.50;99.90;;;;;;5046929;28;20099;-52
2023/01/10 00:53:23;;;;;;;20.98;4.47;;;3.50;99.90;;;;;;5047026;28;20045;-52
2023/01/10 00:55:48;;;;;;;16.00;3.35;;;3.50;99.90;;;;;;5046572;28;20043;-53
2023/01/10 00:58:15;;;;;;;21.05;3.63;;;3.60;99.90;;;;;;5049833;28;20037;-51
2023/01/10 01:00:45;;;;;;;22.98;4.03;;;3.70;99.90;;;;;;5050803;28;20045;-52
2023/01/10 01:03:11;;;;;;;22.83;4.18;;;3.80;99.90;;;;;;5050741;28;20104;-51
2023/01/10 01:05:41;;;;;;;20.05;2.45;;;4.70;99.90;;;;;;5051006;28;20106;-51
2023/01/10 01:08:07;;;;;;;21.05;3.15;;;3.60;99.90;;;;;;5051139;28;20474;-52
2023/01/10 01:10:33;;;;;;;24.15;5.30;;;3.70;99.90;;;;;;5050625;28;20515;-53
2023/01/10 01:13:25;;;;;;;18.02;3.15;;;4.10;99.90;;;;;;5050364;28;20048;-52
2023/01/10 01:15:51;;;;;;;20.05;3.72;;;3.80;99.90;;;;;;5049500;28;20136;-54
2023/01/10 01:18:19;;;;;;;22.50;3.10;;;3.80;99.90;;;;;;5050003;28;20457;-53
2023/01/10 01:20:46;;;;;;;16.55;2.85;;;3.80;99.90;;;;;;5049895;28;20036;-52
2023/01/10 01:23:13;;;;;;;17.48;3.55;;;3.70;99.90;;;;;;5049821;28;20049;-52
2023/01/10 01:25:39;;;;;;;22.17;5.38;;;3.70;99.90;;;;;;5049717;28;20045;-53
2023/01/10 01:28:05;;;;;;;25.65;3.38;;;3.60;99.90;;;;;;5049655;28;20044;-53
2023/01/10 01:30:31;;;;;;;17.63;3.83;;;3.70;99.90;;;;;;5049901;28;20510;-54
2023/01/10 01:32:57;;;;;;;26.73;3.50;;;3.80;99.90;;;;;;5049330;28;20517;-54
2023/01/10 01:35:24;;;;;;;24.02;4.90;;;3.90;99.90;;;;;;5049523;28;20053;-54
2023/01/10 01:37:49;;;;;;;21.92;3.20;;;4.00;99.90;;;;;;5049498;28;20052;-54
2023/01/10 01:40:18;;;;;;;21.75;3.97;;;4.10;99.90;;;;;;5049988;28;20122;-51
2023/01/10 01:42:44;;;;;;;30.20;3.10;;;4.70;99.90;;;;;;5049837;28;20049;-54
2023/01/10 01:45:13;;;;;;;23.45;2.80;;;4.20;99.90;;;;;;5050144;28;20041;-53
2023/01/10 01:47:48;;;;;;;24.05;3.33;;;4.20;99.90;;;;;;5050075;28;20044;-49
2023/01/10 01:50:21;;;;;;;22.55;4.43;;;4.30;99.90;;;;;;5049929;28;20036;-52
2023/01/10 01:52:50;;;;;;;22.75;4.30;;;4.20;99.90;;;;;;5049663;28;20763;-53
2023/01/10 01:55:16;;;;;;;17.55;2.90;;;4.20;99.90;;;;;;5049459;28;20047;-53
2023/01/10 01:57:44;;;;;;;28.13;3.33;;;4.10;99.90;;;;;;5049326;28;20046;-50
2023/01/10 02:00:11;;;;;;;19.83;3.28;;;4.10;99.90;;;;;;5031499;28;20054;-53
2023/01/10 02:02:43;;;;;;;25.88;3.78;;;4.00;99.90;;;;;;5049702;28;20037;-54
2023/01/10 02:05:12;;;;;;;36.05;4.13;;;3.90;99.90;;;;;;5049342;28;20052;-52
2023/01/10 02:07:40;;;;;;;22.05;3.45;;;3.90;99.90;;;;;;5049546;28;20045;-50
2023/01/10 02:10:42;;;;;;;19.00;3.20;;;3.80;99.90;;;;;;5048708;28;20064;-51
2023/01/10 02:13:10;;;;;;;22.17;2.60;;;3.70;99.90;;;;;;5034839;28;20056;-52
2023/01/10 02:15:36;;;;;;;20.40;3.45;;;3.70;99.90;;;;;;5049445;28;20056;-53
2023/01/10 02:18:02;;;;;;;28.30;4.25;;;3.80;99.90;;;;;;5048852;28;20041;-50
2023/01/10 02:20:33;;;;;;;27.35;3.30;;;3.70;99.90;;;;;;5049068;28;20045;-54
2023/01/10 02:23:27;;;;;;;20.63;2.80;;;4.60;99.90;;;;;;5049210;28;20080;-52
2023/01/10 02:26:25;;;;;;;16.60;2.95;;;3.60;99.90;;;;;;5049083;28;20051;-53
2023/01/10 02:29:06;;;;;;;24.55;3.00;;;3.50;99.90;;;;;;5021643;28;20083;-53
2023/01/10 02:31:55;;;;;;;20.02;2.45;;;4.10;99.90;;;;;;5049066;28;20041;-52
2023/01/10 02:34:41;;;;;;;20.83;3.03;;;3.30;99.90;;;;;;5048579;28;20462;-53
2023/01/10 02:37:37;;;;;;;25.67;3.88;;;3.20;99.90;;;;;;5048861;28;20143;-51
2023/01/10 02:40:24;;;;;;;32.15;3.03;;;3.10;99.90;;;;;;5030617;28;20459;-52
2023/01/10 02:43:21;;;;;;;16.33;2.35;;;3.20;99.90;;;;;;5031057;28;20125;-51
2023/01/10 02:45:49;;;;;;;23.15;3.40;;;3.30;99.90;;;;;;5048435;28;20758;-50
2023/01/10 02:48:16;;;;;;;26.85;5.05;;;3.40;99.90;;;;;;5048126;28;20040;-53
2023/01/10 02:50:42;;;;;;;24.08;3.60;;;3.60;99.90;;;;;;5048427;28;20043;-50
2023/01/10 02:53:19;;;;;;;22.77;3.20;;;3.60;99.90;;;;;;5047861;28;20036;-52
2023/01/10 02:56:11;;;;;;;29.63;3.33;;;1.80;99.90;;;;;;5048250;28;20055;-51
2023/01/10 02:58:42;;;;;;;26.45;3.78;;;3.50;99.90;;;;;;5048071;28;20044;-50
2023/01/10 03:01:19;;;;;;;20.00;2.97;;;3.40;99.90;;;;;;5048074;28;20167;-51
2023/01/10 03:04:07;;;;;;;23.27;2.78;;;3.30;99.90;;;;;;5048148;28;20049;-51
2023/01/10 03:06:43;;;;;;;26.02;2.85;;;3.30;99.90;;;;;;5048230;28;20816;-50
2023/01/10 03:09:17;;;;;;;20.52;3.92;;;3.20;99.90;;;;;;5047909;28;20059;-52
2023/01/10 03:11:46;;;;;;;25.65;3.45;;;3.30;99.90;;;;;;5048145;28;20040;-50
2023/01/10 03:14:25;;;;;;;19.23;2.85;;;3.90;99.90;;;;;;5047364;28;20693;-53
2023/01/10 03:17:05;;;;;;;23.83;3.35;;;3.60;99.90;;;;;;5048033;28;20102;-51
2023/01/10 03:19:39;;;;;;;21.88;3.08;;;3.70;99.90;;;;;;5047647;28;20536;-51
2023/01/10 03:22:09;;;;;;;22.17;2.90;;;3.90;99.90;;;;;;5047612;28;20098;-53
2023/01/10 03:24:56;;;;;;;23.52;3.45;;;4.00;99.90;;;;;;5048012;28;20144;-50
2023/01/10 03:27:28;;;;;;;20.42;3.03;;;3.90;99.90;;;;;;5047598;28;20052;-53
2023/01/10 03:30:09;;;;;;;18.47;3.73;;;3.80;99.90;;;;;;5048182;28;20494;-53
2023/01/10 03:32:35;;;;;;;21.80;3.60;;;3.80;99.90;;;;;;5048168;28;20056;-52
2023/01/10 03:35:02;;;;;;;19.30;3.45;;;3.70;99.90;;;;;;5047131;28;20605;-53
2023/01/10 03:37:52;;;;;;;17.67;3.08;;;3.70;99.90;;;;;;5047706;28;20094;-52
2023/01/10 03:40:32;;;;;;;28.80;3.30;;;3.70;99.90;;;;;;5047386;28;20083;-52
2023/01/10 03:46:12;;;;;;;26.77;3.92;;;3.60;99.90;;;;;;5047074;28;20084;-53
2023/01/10 03:48:42;;;;;;;18.93;3.70;;;3.60;99.90;;;;;;5047262;28;20064;-53
2023/01/10 03:51:08;;;;;;;22.00;2.90;;;3.60;99.90;;;;;;5046764;28;20334;-51
2023/01/10 03:53:37;;;;;;;17.08;3.35;;;3.50;99.90;;;;;;5046804;28;20053;-52
2023/01/10 03:56:03;;;;;;;18.38;2.60;;;3.80;99.90;;;;;;5046747;28;20051;-51
2023/01/10 03:58:29;;;;;;;25.08;3.72;;;3.80;99.90;;;;;;5047092;28;20044;-52
2023/01/10 04:00:54;;;;;;;21.10;2.92;;;4.40;99.90;;;;;;5047084;28;20037;-52
2023/01/10 04:03:20;;;;;;;19.05;3.47;;;3.80;99.90;;;;;;5046776;28;20044;-53
2023/01/10 04:05:46;;;;;;;23.83;3.85;;;3.90;99.90;;;;;;5046988;28;20772;-52
2023/01/10 04:08:11;;;;;;;22.80;3.60;;;4.00;99.90;;;;;;5047297;28;20053;-52
2023/01/10 04:10:37;;;;;;;26.58;4.03;;;4.00;99.90;;;;;;5029631;28;20048;-53
2023/01/10 04:13:04;;;;;;;23.45;4.60;;;4.10;99.90;;;;;;5047111;28;20047;-50
2023/01/10 04:15:30;;;;;;;22.45;3.42;;;4.20;99.90;;;;;;5046882;28;20037;-53
2023/01/10 04:17:56;;;;;;;21.40;3.58;;;4.10;99.90;;;;;;5047117;28;20037;-52
2023/01/10 04:20:25;;;;;;;28.30;3.72;;;4.10;99.90;;;;;;5046874;28;20540;-53
2023/01/10 04:22:53;;;;;;;25.98;5.22;;;4.00;99.90;;;;;;5047078;28;20483;-52
2023/01/10 04:25:20;;;;;;;16.35;3.28;;;3.90;99.90;;;;;;5046968;28;20139;-53
2023/01/10 04:27:48;;;;;;;25.17;3.40;;;3.90;99.90;;;;;;5028648;28;20387;-53
2023/01/10 04:30:14;;;;;;;28.50;4.00;;;3.90;99.90;;;;;;5046719;28;20055;-50
2023/01/10 04:32:40;;;;;;;28.58;3.92;;;4.00;99.90;;;;;;5048956;28;20040;-52
2023/01/10 04:35:06;;;;;;;20.80;3.83;;;4.90;99.90;;;;;;5050341;28;20049;-52
2023/01/10 04:37:31;;;;;;;24.92;3.08;;;4.00;99.90;;;;;;5050985;28;20051;-53
2023/01/10 04:39:57;;;;;;;20.85;3.45;;;3.90;99.90;;;;;;5050723;28;20061;-53
2023/01/10 04:42:23;;;;;;;26.45;3.65;;;3.80;99.90;;;;;;5050617;28;20045;-52
2023/01/10 04:44:49;;;;;;;24.48;4.07;;;4.30;99.90;;;;;;5051167;28;20394;-52
2023/01/10 04:47:14;;;;;;;24.85;4.28;;;4.70;99.90;;;;;;5050563;28;20048;-52
2023/01/10 04:49:40;;;;;;;19.98;3.70;;;3.60;99.90;;;;;;5032746;28;20080;-52
2023/01/10 04:52:06;;;;;;;20.50;3.00;;;3.90;99.90;;;;;;5050847;28;20041;-51
2023/01/10 04:54:31;;;;;;;20.83;3.83;;;3.40;99.90;;;;;;5050452;28;20041;-53
2023/01/10 04:56:57;;;;;;;19.75;4.93;;;4.00;99.90;;;;;;5032346;28;20459;-53
2023/01/10 04:59:23;;;;;;;20.38;3.40;;;3.90;99.90;;;;;;5049828;28;20044;-53
2023/01/10 05:01:48;;;;;;;22.70;4.10;;;3.90;99.90;;;;;;5050262;28;20136;-53
2023/01/10 05:04:14;;;;;;;18.05;3.78;;;4.00;99.90;;;;;;5050051;28;20032;-50
2023/01/10 05:06:40;;;;;;;25.27;4.65;;;3.90;99.90;;;;;;5014110;28;20144;-45
2023/01/10 05:09:07;;;;;;;22.08;3.88;;;4.10;99.90;;;;;;5023630;28;20046;-43
2023/01/10 05:11:32;;;;;;;19.95;5.35;;;4.20;99.90;;;;;;5027926;28;20045;-45
2023/01/10 05:13:58;;;;;;;33.05;5.60;;;5.00;99.90;;;;;;5028884;28;20052;-42
2023/01/10 05:16:24;;;;;;;27.13;5.32;;;4.30;99.90;;;;;;5029202;28;20497;-41
2023/01/10 05:18:50;;;;;;;24.27;5.20;;;4.60;99.90;;;;;;5010931;28;20148;-41
2023/01/10 05:21:16;;;;;;;20.38;4.32;;;4.30;99.90;;;;;;5010606;28;20103;-46
2023/01/10 05:23:42;;;;;;;29.42;5.95;;;4.30;99.90;;;;;;5028572;28;20056;-45
2023/01/10 05:26:16;;;;;;;22.63;4.40;;;4.30;99.90;;;;;;5030037;28;20053;-46
2023/01/10 05:28:42;;;;;;;25.17;4.50;;;5.30;99.90;;;;;;5030540;28;20041;-47
2023/01/10 05:31:11;;;;;;;26.02;5.40;;;4.20;99.90;;;;;;5030252;28;20383;-48
2023/01/10 05:33:37;;;;;;;32.78;6.13;;;4.30;99.90;;;;;;5030049;28;20821;-46
2023/01/10 05:36:04;;;;;;;18.58;4.82;;;4.40;99.90;;;;;;5029475;28;20079;-45
2023/01/10 05:38:31;;;;;;;31.20;5.10;;;4.50;99.90;;;;;;5029526;28;20049;-46
2023/01/10 05:40:58;;;;;;;29.40;5.57;;;4.60;99.90;;;;;;5029558;28;20037;-45
2023/01/10 05:43:24;;;;;;;21.90;4.63;;;5.20;99.90;;;;;;5028072;28;20050;-44
2023/01/10 05:45:50;;;;;;;27.48;5.45;;;4.70;99.90;;;;;;5029455;28;20429;-46
2023/01/10 05:48:17;;;;;;;39.90;5.97;;;4.70;99.90;;;;;;5011401;28;20487;-45
2023/01/10 05:50:43;;;;;;;28.83;4.70;;;5.70;99.90;;;;;;5029427;28;20092;-47
2023/01/10 05:53:09;;;;;;;29.85;4.88;;;4.90;99.90;;;;;;5029860;28;20041;-47
2023/01/10 05:55:35;;;;;;;26.83;5.80;;;4.90;99.90;;;;;;5029269;28;20060;-45
2023/01/10 05:58:00;;;;;;;38.28;6.97;;;6.00;99.90;;;;;;5029982;28;20065;-45
2023/01/10 06:00:26;;;;;;;39.08;5.30;;;5.00;99.90;;;;;;5029600;28;20077;-46
2023/01/10 06:02:56;;;;;;;23.67;4.55;;;5.00;99.90;;;;;;5029762;28;20092;-45
2023/01/10 06:05:23;;;;;;;30.65;4.85;;;5.00;99.90;;;;;;5028513;28;20574;-45
2023/01/10 06:07:48;;;;;;;24.77;3.65;;;5.00;99.90;;;;;;5029308;28;20099;-45
2023/01/10 06:10:15;;;;;;;30.45;4.60;;;5.00;99.90;;;;;;5029275;28;20080;-46
2023/01/10 06:12:41;;;;;;;35.67;6.85;;;5.10;99.90;;;;;;5029231;28;20037;-45
2023/01/10 06:15:08;;;;;;;30.58;5.65;;;5.10;99.90;;;;;;5029195;28;20042;-47
2023/01/10 06:17:34;;;;;;;28.38;4.53;;;5.10;99.90;;;;;;5028595;28;20052;-47
2023/01/10 06:19:59;;;;;;;39.20;7.85;;;5.30;99.90;;;;;;5029021;28;20049;-44
2023/01/10 06:22:26;;;;;;;27.20;5.32;;;5.10;99.90;;;;;;5028715;28;20064;-45
2023/01/10 06:24:53;;;;;;;26.85;5.63;;;5.10;99.90;;;;;;5028493;28;20037;-46
2023/01/10 06:27:19;;;;;;;24.02;4.97;;;5.50;99.90;;;;;;5011050;28;20552;-46
2023/01/10 06:29:44;;;;;;;27.63;5.00;;;5.00;99.90;;;;;;5029065;28;20038;-46
2023/01/10 06:32:10;;;;;;;32.80;5.38;;;4.90;99.90;;;;;;5028732;28;20067;-45
2023/01/10 06:34:36;;;;;;;34.30;5.00;;;4.80;99.90;;;;;;5028712;28;20048;-46
2023/01/10 06:37:01;;;;;;;31.13;6.03;;;5.70;99.90;;;;;;5029130;28;20037;-46
2023/01/10 06:39:27;;;;;;;28.60;6.43;;;4.50;99.90;;;;;;5028555;28;20045;-45
2023/01/10 06:41:53;;;;;;;33.95;6.43;;;4.50;99.90;;;;;;5028737;28;20671;-47
2023/01/10 06:44:18;;;;;;;32.22;5.72;;;4.30;99.90;;;;;;5028880;28;20114;-45
2023/01/10 06:46:44;;;;;;;29.20;6.55;;;4.30;99.90;;;;;;5028526;28;20037;-45
2023/01/10 06:49:10;;;;;;;35.03;8.32;;;4.30;99.90;;;;;;5028490;28;20880;-45
2023/01/10 06:51:35;;;;;;;29.13;7.05;;;4.30;99.90;;;;;;5028104;28;20041;-45
2023/01/10 06:54:01;;;;;;;26.98;6.07;;;4.30;99.90;;;;;;5027924;28;20076;-45
2023/01/10 06:56:26;;;;;;;26.15;6.30;;;4.30;99.90;;;;;;5009497;28;20049;-47
2023/01/10 06:58:52;;;;;;;30.63;5.82;;;4.90;99.90;;;;;;5027925;28;20045;-46
2023/01/10 07:01:20;;;;;;;31.15;6.63;;;4.20;99.90;;;;;;5028155;28;20049;-45
2023/01/10 07:03:46;;;;;;;30.83;6.30;;;5.00;99.90;;;;;;5027713;28;20590;-45
2023/01/10 07:06:12;;;;;;;24.20;5.60;;;4.10;99.90;;;;;;5027845;28;20523;-45
2023/01/10 07:08:40;;;;;;;32.20;6.07;;;4.10;99.90;;;;;;5028123;28;20042;-45
2023/01/10 07:11:07;;;;;;;33.75;7.05;;;4.10;99.90;;;;;;5028237;28;20129;-45
2023/01/10 07:13:33;;;;;;;33.28;7.55;;;4.20;99.90;;;;;;5027940;28;20422;-46
2023/01/10 07:16:13;;;;;;;36.95;7.65;;;5.20;99.90;;;;;;5028284;28;20059;-45
2023/01/10 07:18:40;;;;;;;31.27;6.80;;;4.30;99.90;;;;;;5027762;28;20045;-47
2023/01/10 07:21:07;;;;;;;35.78;7.40;;;4.40;99.90;;;;;;5027929;28;20045;-47
2023/01/10 07:23:32;;;;;;;26.80;6.43;;;4.40;99.90;;;;;;5027324;28;20128;-46
2023/01/10 07:26:03;;;;;;;33.30;6.85;;;4.50;99.90;;;;;;5027977;28;20124;-45
2023/01/10 07:28:29;;;;;;;37.97;6.43;;;4.30;99.90;;;;;;5027674;28;20037;-46
2023/01/10 07:30:58;;;;;;;33.47;8.07;;;4.70;99.90;;;;;;5027889;28;20049;-45
2023/01/10 07:33:24;;;;;;;40.90;10.43;;;4.70;99.90;;;;;;5028073;28;20141;-46
2023/01/10 07:35:49;;;;;;;39.08;10.80;;;4.70;99.90;;;;;;5027100;28;20077;-46
2023/01/10 07:38:15;;;;;;;40.13;9.30;;;4.60;99.90;;;;;;5027865;28;20064;-45
2023/01/10 07:40:41;;;;;;;33.80;7.85;;;4.90;99.90;;;;;;5027450;28;20051;-44
2023/01/10 07:43:06;;;;;;;47.10;9.68;;;4.80;99.90;;;;;;5027923;28;20125;-45
2023/01/10 07:45:32;;;;;;;35.72;9.52;;;4.90;99.90;;;;;;5027688;28;20103;-47
2023/01/10 07:47:59;;;;;;;42.72;9.32;;;4.90;99.90;;;;;;5027630;28;20391;-46
2023/01/10 07:50:27;;;;;;;39.33;9.63;;;5.30;99.90;;;;;;5027339;28;20618;-45
2023/01/10 07:52:53;;;;;;;36.95;8.80;;;5.00;99.90;;;;;;5027173;28;20057;-45
2023/01/10 07:55:20;;;;;;;41.70;8.68;;;5.00;99.90;;;;;;5009894;28;20045;-45
2023/01/10 07:57:45;;;;;;;41.35;10.27;;;4.90;99.90;;;;;;5027242;28;20042;-46
2023/01/10 08:00:11;;;;;;;31.42;7.93;;;4.90;99.90;;;;;;5027522;28;20037;-45
2023/01/10 08:02:37;;;;;;;42.65;7.90;;;5.00;99.90;;;;;;5009466;28;20104;-45
2023/01/10 08:05:03;;;;;;;29.50;8.13;;;4.90;99.90;;;;;;5027804;28;20464;-46
2023/01/10 08:07:30;;;;;;;33.55;6.75;;;5.10;99.90;;;;;;5026586;28;20053;-46
2023/01/10 08:09:55;;;;;;;38.00;9.43;;;5.10;99.90;;;;;;5027275;28;20472;-47
2023/01/10 08:12:23;;;;;;;42.83;8.55;;;5.10;99.90;;;;;;5027536;28;20057;-45
2023/01/10 08:14:49;;;;;;;34.90;7.63;;;5.20;99.90;;;;;;5026757;28;20047;-48
2023/01/10 08:17:15;;;;;;;35.33;7.85;;;6.30;99.90;;;;;;5027128;28;20037;-46
2023/01/10 08:19:41;;;;;;;44.67;8.10;;;5.20;99.90;;;;;;5027445;28;20367;-45
2023/01/10 08:22:06;;;;;;;31.05;7.35;;;5.20;99.90;;;;;;5027548;28;20440;-46
2023/01/10 08:24:32;;;;;;;39.15;7.68;;;5.20;99.90;;;;;;5027087;28;20205;-48
2023/01/10 08:26:58;;;;;;;38.78;8.32;;;5.20;99.90;;;;;;5027504;28;20120;-47
2023/01/10 08:29:24;;;;;;;32.25;6.88;;;5.30;99.90;;;;;;5027506;28;20053;-45
2023/01/10 08:31:50;;;;;;;22.88;5.68;;;5.30;99.90;;;;;;5027029;28;20088;-46
2023/01/10 08:34:16;;;;;;;32.15;5.68;;;5.30;99.90;;;;;;5009678;28;20045;-44
2023/01/10 08:36:42;;;;;;;29.58;5.20;;;5.30;99.90;;;;;;5027211;28;20033;-45
2023/01/10 08:39:07;;;;;;;33.20;5.65;;;5.30;99.90;;;;;;5027119;28;20517;-45
2023/01/10 08:41:33;;;;;;;32.22;6.20;;;5.40;99.90;;;;;;5026608;28;20148;-46
2023/01/10 08:43:59;;;;;;;29.77;7.53;;;5.70;99.90;;;;;;5027063;28;20492;-45
2023/01/10 08:46:25;;;;;;;26.95;6.63;;;5.50;99.90;;;;;;5026821;28;20049;-45
2023/01/10 08:48:51;;;;;;;28.42;5.95;;;5.40;99.90;;;;;;5027230;28;20041;-48
2023/01/10 08:51:17;;;;;;;37.00;7.28;;;5.40;99.90;;;;;;5026908;28;20037;-45
2023/01/10 08:53:43;;;;;;;30.83;6.68;;;5.40;99.90;;;;;;5026482;28;20049;-45
2023/01/10 08:56:09;;;;;;;31.92;5.72;;;5.60;99.90;;;;;;5026785;28;20057;-46
2023/01/10 08:58:35;;;;;;;29.60;5.75;;;5.40;99.90;;;;;;5026998;28;20042;-47
2023/01/10 09:01:08;;;;;;;25.70;5.57;;;5.30;99.90;;;;;;5009452;28;20064;-46
2023/01/10 09:03:34;;;;;;;31.00;8.05;;;5.30;99.90;;;;;;5026499;28;20045;-45
2023/01/10 09:06:01;;;;;;;28.85;6.30;;;5.30;99.90;;;;;;5026550;28;20061;-45
2023/01/10 09:08:27;;;;;;;36.42;5.53;;;5.20;99.90;;;;;;5026663;28;20048;-45
2023/01/10 09:10:53;;;;;;;32.45;5.82;;;5.00;99.90;;;;;;5026131;28;20053;-46
2023/01/10 09:13:19;;;;;;;30.52;5.57;;;6.00;99.90;;;;;;5026581;28;20160;-45
2023/01/10 09:15:44;;;;;;;37.00;6.05;;;5.30;99.90;;;;;;5026099;28;20118;-46
2023/01/10 09:18:11;;;;;;;31.55;5.95;;;5.20;99.90;;;;;;5027875;28;20049;-45
2023/01/10 09:20:39;;;;;;;21.48;5.05;;;5.20;99.90;;;;;;5030383;28;20049;-45
2023/01/10 09:23:10;;;;;;;25.75;5.07;;;5.20;99.90;;;;;;5030559;28;20127;-47
2023/01/10 09:25:36;;;;;;;30.08;5.63;;;5.20;99.90;;;;;;5030719;28;20041;-45
2023/01/10 09:28:03;;;;;;;27.15;5.13;;;5.30;99.90;;;;;;5030301;28;20037;-45
2023/01/10 09:30:30;;;;;;;33.22;5.28;;;5.30;99.90;;;;;;5030279;28;20088;-46
2023/01/10 09:32:57;;;;;;;23.40;5.00;;;5.30;99.90;;;;;;5029733;28;20083;-49
2023/01/10 09:35:24;;;;;;;24.63;6.55;;;5.40;99.90;;;;;;5030379;28;20049;-45
2023/01/10 09:37:53;;;;;;;27.67;4.95;;;5.30;99.90;;;;;;5029740;28;20045;-47
2023/01/10 09:40:26;;;;;;;29.25;5.38;;;6.30;99.90;;;;;;5029712;28;20099;-46
2023/01/10 09:43:02;;;;;;;32.10;5.10;;;5.30;99.90;;;;;;5029436;28;20475;-46
2023/01/10 09:45:38;;;;;;;30.33;4.90;;;5.30;99.90;;;;;;5030067;28;20113;-45
2023/01/10 09:48:12;;;;;;;23.40;5.00;;;7.10;99.90;;;;;;5029464;28;20481;-48
2023/01/10 09:51:19;;;;;;;31.92;7.25;;;5.50;99.90;;;;;;5029741;28;20079;-45
2023/01/10 09:53:46;;;;;;;25.27;4.40;;;5.60;99.90;;;;;;4967607;28;20105;-45
2023/01/10 09:56:14;;;;;;;21.83;4.72;;;5.60;99.90;;;;;;5016005;28;20057;-45
2023/01/10 09:58:43;;;;;;;31.20;5.50;;;5.90;99.90;;;;;;5028248;28;20049;-46
2023/01/10 10:01:14;;;;;;;27.25;4.60;;;5.70;99.90;;;;;;5028608;28;20055;-47
2023/01/10 10:04:01;;;;;;;25.83;4.72;;;5.80;99.90;;;;;;5028600;28;20479;-44
2023/01/10 10:06:27;;;;;;;29.63;5.65;;;6.60;99.90;;;;;;5028114;28;20054;-45
2023/01/10 10:08:53;;;;;;;33.67;4.35;;;5.90;99.90;;;;;;5028408;28;20045;-45
2023/01/10 10:11:24;;;;;;;26.00;4.95;;;5.80;99.90;;;;;;5028408;28;20439;-46
2023/01/10 10:14:31;;;;;;;28.20;5.63;;;5.90;99.90;;;;;;5028249;28;20045;-45
2023/01/10 10:17:26;;;;;;;27.05;4.53;;;6.00;99.90;;;;;;5027472;28;21044;-46
2023/01/10 10:20:18;;;;;;;24.40;5.00;;;6.00;99.90;;;;;;5028068;28;20098;-47
2023/01/10 10:23:22;;;;;;;33.00;4.80;;;6.00;99.90;;;;;;5027828;28;20045;-46
2023/01/10 10:26:13;;;;;;;27.83;5.40;;;6.00;99.90;;;;;;5027839;28;20087;-45
2023/01/10 10:29:05;;;;;;;22.15;4.45;;;6.10;99.90;;;;;;5027827;28;20071;-46
2023/01/10 10:31:44;;;;;;;21.65;5.55;;;6.10;99.90;;;;;;5027986;28;20037;-45
2023/01/10 10:34:20;;;;;;;28.92;6.65;;;6.20;99.90;;;;;;5027470;28;20552;-45
2023/01/10 10:37:32;;;;;;;35.08;6.28;;;6.20;99.90;;;;;;5027851;28;20045;-45
2023/01/10 10:40:13;;;;;;;27.80;6.33;;;6.20;99.90;;;;;;5014326;28;20088;-49
2023/01/10 10:42:43;;;;;;;34.53;6.28;;;7.30;99.90;;;;;;5027393;28;20148;-45
2023/01/10 10:45:46;;;;;;;31.25;7.70;;;6.30;99.90;;;;;;5027483;28;20127;-46
2023/01/10 10:48:16;;;;;;;29.88;6.70;;;6.40;99.90;;;;;;5027444;28;20696;-46
2023/01/10 10:51:01;;;;;;;27.92;7.35;;;6.40;99.90;;;;;;5027961;28;20048;-45
2023/01/10 10:53:27;;;;;;;27.83;7.45;;;6.40;99.90;;;;;;5027970;28;20041;-45
2023/01/10 10:55:54;;;;;;;47.33;10.07;;;6.30;99.90;;;;;;5027149;28;20395;-46
2023/01/10 10:58:20;;;;;;;30.77;9.02;;;6.50;99.90;;;;;;5027835;28;20045;-46
2023/01/10 11:00:46;;;;;;;33.60;9.23;;;6.70;99.90;;;;;;5027316;28;20128;-46
2023/01/10 11:03:30;;;;;;;30.67;9.60;;;8.40;99.90;;;;;;5027431;28;20152;-46
2023/01/10 11:05:59;;;;;;;35.25;11.00;;;7.10;99.90;;;;;;5027332;28;20061;-47
2023/01/10 11:08:27;;;;;;;32.63;9.82;;;6.60;99.90;;;;;;5027153;28;20053;-48
2023/01/10 11:10:55;;;;;;;33.97;11.73;;;6.60;99.90;;;;;;5026966;28;20798;-46
2023/01/10 11:13:45;;;;;;;35.13;11.20;;;6.60;99.90;;;;;;5026985;28;20045;-46
2023/01/10 11:16:30;;;;;;;26.75;11.13;;;6.60;99.90;;;;;;5027088;28;20037;-45
2023/01/10 11:19:14;;;;;;;28.85;10.43;;;5.00;99.90;;;;;;5026895;28;20041;-46
2023/01/10 11:21:44;;;;;;;25.58;9.77;;;6.60;99.90;;;;;;5027319;28;20118;-45
2023/01/10 11:24:27;;;;;;;34.33;10.27;;;6.60;99.90;;;;;;5027374;28;20045;-45
2023/01/10 11:26:56;;;;;;;30.50;9.88;;;6.60;99.90;;;;;;5026837;28;20045;-44
2023/01/10 11:29:47;;;;;;;36.83;10.05;;;6.60;99.90;;;;;;5027013;28;20041;-47
2023/01/10 11:32:17;;;;;;;33.83;9.30;;;6.70;99.90;;;;;;5021161;28;20068;-45
2023/01/10 11:34:57;;;;;;;35.10;9.77;;;6.60;99.90;;;;;;5026286;28;20037;-47
2023/01/10 11:37:31;;;;;;;30.42;9.45;;;7.40;99.90;;;;;;5026741;28;20099;-47
2023/01/10 11:40:37;;;;;;;26.98;9.70;;;6.70;99.90;;;;;;5026145;28;20415;-46
2023/01/10 11:43:25;;;;;;;33.15;9.18;;;6.70;99.90;;;;;;4964613;28;20046;-47
2023/01/10 11:46:01;;;;;;;31.88;8.35;;;7.00;99.90;;;;;;4964828;28;20070;-45
2023/01/10 11:48:51;;;;;;;30.42;7.78;;;6.90;99.90;;;;;;5007861;28;20053;-45
2023/01/10 11:51:25;;;;;;;26.67;7.68;;;6.70;99.90;;;;;;5026327;28;20038;-45
2023/01/10 11:53:58;;;;;;;28.00;7.85;;;7.30;99.90;;;;;;5026016;28;20640;-44
2023/01/10 11:56:28;;;;;;;29.30;7.35;;;6.50;99.90;;;;;;5026426;28;20111;-46
2023/01/10 11:58:54;;;;;;;27.02;7.40;;;6.70;99.90;;;;;;5026198;28;20879;-45
2023/01/10 12:01:52;;;;;;;25.63;7.40;;;6.70;99.90;;;;;;5026169;28;20045;-46
2023/01/10 12:04:20;;;;;;;29.83;7.63;;;6.70;99.90;;;;;;5025548;28;20143;-46
2023/01/10 12:06:52;;;;;;;30.73;7.55;;;6.50;99.90;;;;;;5026018;28;20060;-45
2023/01/10 12:09:31;;;;;;;;;;;6.70;99.90;;;;;;5026440;28;20360;-45
2023/01/10 12:12:20;;;;;;;29.08;7.93;;;6.70;99.90;;;;;;5026030;28;20425;-44
2023/01/10 12:14:47;;;;;;;19.45;5.80;;;6.70;99.90;;;;;;5026248;28;20079;-47
2023/01/10 12:17:23;;;;;;;25.48;5.65;;;6.70;99.90;;;;;;5025902;28;20041;-45
2023/01/10 12:19:52;;;;;;;22.38;4.85;;;6.70;99.90;;;;;;5025957;28;20064;-44
2023/01/10 12:22:21;;;;;;;24.98;6.10;;;6.60;99.90;;;;;;5025954;28;20049;-44
2023/01/10 12:24:50;;;;;;;24.20;5.50;;;6.70;99.90;;;;;;5025488;28;20045;-44
2023/01/10 12:27:17;;;;;;;28.13;5.45;;;6.70;99.90;;;;;;5025515;28;20121;-43
2023/01/10 12:30:05;;;;;;;28.58;5.07;;;6.70;99.90;;;;;;5025657;28;20041;-44
2023/01/10 12:32:40;;;;;;;37.85;6.18;;;6.70;99.90;;;;;;5009896;28;20323;-40
2023/01/10 12:35:13;;;;;;;24.23;5.93;;;6.60;99.90;;;;;;5005744;28;20083;-38
2023/01/10 12:37:54;;;;;;;15.27;4.32;;;6.80;99.90;;;;;;5044153;28;20198;-38
2023/01/10 12:40:46;;;;;;;23.50;5.50;;;6.60;99.90;;;;;;5043676;28;20731;-40
2023/01/10 12:46:23;;;;;;;18.35;4.18;;;6.60;99.90;;;;;;5044367;28;20122;-39
2023/01/10 12:49:06;;;;;;;23.13;5.05;;;7.50;99.90;;;;;;5044518;28;20099;-39
2023/01/10 12:51:34;;;;;;;24.73;4.78;;;6.60;99.90;;;;;;5043293;28;20827;-39
2023/01/10 12:54:11;;;;;;;21.02;4.88;;;6.50;99.90;;;;;;5046533;28;20080;-38
2023/01/10 12:56:38;;;;;;;21.48;4.88;;;6.60;99.90;;;;;;5048456;28;20130;-38
2023/01/10 12:59:15;;;;;;;23.92;6.45;;;6.40;99.90;;;;;;5047761;28;20728;-38
2023/01/10 13:01:43;;;;;;;23.85;5.13;;;6.50;99.90;;;;;;5047952;28;20048;-38
2023/01/10 13:04:13;;;;;;;22.10;5.13;;;7.00;99.90;;;;;;5030015;28;20514;-39
2023/01/10 13:06:41;;;;;;;20.45;5.43;;;6.30;99.90;;;;;;5047931;28;20045;-38
2023/01/10 13:09:16;;;;;;;17.67;4.20;;;7.10;99.90;;;;;;5048135;28;20114;-43
2023/01/10 13:11:56;;;;;;;22.40;4.90;;;6.30;99.90;;;;;;5047769;28;20486;-40
2023/01/10 13:14:27;;;;;;;22.67;5.55;;;6.30;99.90;;;;;;5047323;28;20045;-40
2023/01/10 13:17:01;;;;;;;28.35;4.90;;;6.20;99.90;;;;;;5047346;28;20617;-39